Terminal Aerodrome Forecast
Issued by NWS Cheyenne, WY

Home | Current Version | Previous Version | Text Only | Print | Product List | Glossary On
Versions: 1 2 3 4 5 6 7 8 9 10 11 12 13 14 15 16 17
000
FTUS45 KCYS 231727 CCA
TAFCYS
TAF COR
KCYS 231727Z 2318/2418 18015G25KT P6SM SKC
     FM232200 24017G30KT P6SM VCSH SCT060 BKN100
     FM240100 32016G30KT P6SM -RA OVC050
     FM240300 01021G30KT P6SM -RASN OVC015
     FM240500 36025G35KT 1/2SM SN BLSN OVC005=

USA.gov is the U.S. government's official web portal to all federal, state and local government web resources and services.